createdAt,value
2022-10-01T00:00:18.730Z,75.16
2022-10-01T00:01:18.810Z,74.32
2022-10-01T00:02:18.723Z,74.62
2022-10-01T00:03:18.988Z,74.32
2022-10-01T00:04:18.703Z,73.71
2022-10-01T00:05:18.675Z,73.71
2022-10-01T00:06:18.667Z,73.60
2022-10-01T00:07:18.674Z,73.81
2022-10-01T00:08:18.658Z,73.81
2022-10-01T00:09:18.639Z,74.32
2022-10-01T00:10:18.644Z,73.50
2022-10-01T00:11:18.605Z,73.81
2022-10-01T00:12:18.618Z,73.60
2022-10-01T00:13:18.601Z,73.91
2022-10-01T00:14:18.613Z,73.40
2022-10-01T00:15:18.564Z,73.10
2022-10-01T00:16:18.625Z,73.50
2022-10-01T00:17:18.558Z,74.01
2022-10-01T00:18:18.543Z,73.50
2022-10-01T00:19:18.533Z,74.32
2022-10-01T00:20:18.549Z,74.11
2022-10-01T00:21:18.512Z,74.11
2022-10-01T00:22:18.510Z,74.42
2022-10-01T00:23:18.472Z,73.91
2022-10-01T00:24:18.475Z,74.32
2022-10-01T00:25:18.490Z,73.71
2022-10-01T00:26:18.498Z,73.30
2022-10-01T00:27:18.439Z,73.91
2022-10-01T00:28:18.533Z,74.42
2022-10-01T00:29:18.413Z,73.71
2022-10-01T00:30:18.422Z,73.81
2022-10-01T00:31:18.454Z,73.77
2022-10-01T00:32:18.404Z,74.01
2022-10-01T00:33:18.401Z,74.01
2022-10-01T00:34:18.411Z,75.23
2022-10-01T00:35:18.370Z,75.64
2022-10-01T00:36:18.352Z,76.46
2022-10-01T00:37:18.350Z,77.07
2022-10-01T00:38:18.335Z,77.27
2022-10-01T00:39:18.304Z,77.41
2022-10-01T00:40:18.305Z,78.74
2022-10-01T00:41:18.320Z,79.45
2022-10-01T00:42:18.279Z,78.64
2022-10-01T00:43:18.311Z,79.66
2022-10-01T00:44:18.261Z,80.57
2022-10-01T00:45:18.244Z,80.91
2022-10-01T00:46:18.339Z,80.82
2022-10-01T00:47:18.225Z,79.80
2022-10-01T00:48:18.223Z,80.91
2022-10-01T00:49:18.214Z,81.63
2022-10-01T00:50:18.210Z,82.96
2022-10-01T00:51:18.203Z,83.78
2022-10-01T00:52:18.183Z,83.40
2022-10-01T00:53:18.206Z,84.42
2022-10-01T00:54:18.163Z,84.42
2022-10-01T00:55:18.137Z,85.49
2022-10-01T00:56:18.204Z,86.51
2022-10-01T00:57:18.124Z,86.51
2022-10-01T00:58:18.123Z,87.02
2022-10-01T00:59:18.175Z,88.08
2022-10-01T01:00:18.151Z,87.98
2022-10-01T01:01:18.095Z,89.31
2022-10-01T01:02:18.137Z,89.72
2022-10-01T01:03:18.063Z,89.92
2022-10-01T01:04:18.056Z,90.68
2022-10-01T01:05:18.055Z,91.80
2022-10-01T01:06:18.036Z,91.09
2022-10-01T01:07:18.009Z,90.99
2022-10-01T01:08:18.017Z,91.80
2022-10-01T01:09:18.017Z,91.19
2022-10-01T01:10:18.016Z,91.60
2022-10-01T01:11:17.985Z,92.66
2022-10-01T01:12:17.975Z,92.36
2022-10-01T01:13:17.957Z,92.77
2022-10-01T01:14:17.951Z,93.99
2022-10-01T01:15:17.938Z,93.18
2022-10-01T01:16:17.972Z,93.48
2022-10-01T01:17:17.944Z,93.69
2022-10-01T01:18:17.927Z,92.87
2022-10-01T01:19:17.907Z,93.69
2022-10-01T01:20:17.887Z,94.20
2022-10-01T01:21:17.860Z,95.02
2022-10-01T01:22:17.863Z,94.81
2022-10-01T01:23:17.931Z,94.75
2022-10-01T01:24:17.855Z,94.10
2022-10-01T01:25:17.853Z,94.30
2022-10-01T01:26:17.812Z,94.71
2022-10-01T01:27:17.812Z,95.57
2022-10-01T01:28:17.902Z,95.26
2022-10-01T01:29:17.787Z,94.55
2022-10-01T01:30:17.796Z,95.17
2022-10-01T01:31:17.840Z,95.17
2022-10-01T01:32:17.759Z,95.17
2022-10-01T01:33:17.748Z,95.67
2022-10-01T01:34:17.738Z,95.78
2022-10-01T01:35:17.754Z,95.78
2022-10-01T01:36:17.718Z,96.08
2022-10-01T01:37:17.697Z,96.59
2022-10-01T01:38:17.702Z,96.49
2022-10-01T01:39:17.674Z,96.49
2022-10-01T01:40:17.686Z,97.21
2022-10-01T01:41:17.655Z,96.91
2022-10-01T01:42:17.677Z,96.59
2022-10-01T01:43:17.629Z,96.70
2022-10-01T01:44:17.694Z,96.59
2022-10-01T01:45:17.631Z,96.91
2022-10-01T01:46:17.793Z,96.80
2022-10-01T01:47:17.591Z,96.49
2022-10-01T01:48:17.620Z,97.00
2022-10-01T01:49:17.585Z,97.31
2022-10-01T01:50:17.567Z,97.52
2022-10-01T01:51:17.617Z,97.52
2022-10-01T01:52:17.557Z,97.82
2022-10-01T01:53:17.519Z,97.15
2022-10-01T01:54:17.532Z,97.66
2022-10-01T01:55:17.503Z,97.66
2022-10-01T01:56:17.491Z,97.77
2022-10-01T01:57:17.514Z,97.97
2022-10-01T01:58:17.478Z,97.97
2022-10-01T01:59:17.466Z,97.66
2022-10-01T02:00:17.458Z,97.66
2022-10-01T02:01:17.497Z,98.49
2022-10-01T02:02:17.578Z,98.18
2022-10-01T02:03:17.426Z,98.28
2022-10-01T02:04:17.418Z,98.07
2022-10-01T02:05:17.415Z,98.38
2022-10-01T02:06:17.395Z,98.49
2022-10-01T02:07:17.386Z,98.69
2022-10-01T02:08:17.384Z,98.99
2022-10-01T02:09:17.352Z,98.79
2022-10-01T02:10:17.413Z,98.69
2022-10-01T02:11:17.346Z,98.38
2022-10-01T02:12:17.354Z,98.90
2022-10-01T02:13:17.321Z,98.79
2022-10-01T02:14:17.305Z,99.30
2022-10-01T02:15:17.290Z,99.51
2022-10-01T02:16:17.324Z,98.99
2022-10-01T02:17:17.287Z,99.20
2022-10-01T02:18:17.273Z,99.61
2022-10-01T02:19:17.255Z,99.61
2022-10-01T02:20:17.243Z,99.86
2022-10-01T02:21:17.222Z,99.99
2022-10-01T02:22:17.218Z,99.66
2022-10-01T02:23:17.221Z,99.76
2022-10-01T02:24:17.220Z,99.99
2022-10-01T02:25:17.194Z,99.99
2022-10-01T02:26:17.164Z,99.99
2022-10-01T02:27:17.170Z,99.96
2022-10-01T02:28:17.280Z,99.86
2022-10-01T02:29:17.158Z,99.99
2022-10-01T02:30:17.124Z,99.99
2022-10-01T02:31:17.153Z,99.99
2022-10-01T02:32:17.096Z,99.99
2022-10-01T02:33:17.121Z,99.99
2022-10-01T02:34:20.130Z,99.99
2022-10-01T02:35:17.113Z,99.99
2022-10-01T02:36:17.061Z,99.99
2022-10-01T02:37:17.050Z,99.99
2022-10-01T02:38:17.037Z,99.99
2022-10-01T02:39:17.026Z,99.99
2022-10-01T02:40:17.366Z,99.99
2022-10-01T02:41:17.031Z,99.99
2022-10-01T02:42:17.019Z,99.99
2022-10-01T02:43:17.002Z,99.99
2022-10-01T02:44:16.974Z,99.99
2022-10-01T02:45:16.969Z,99.99
2022-10-01T02:46:17.066Z,99.99
2022-10-01T02:47:16.952Z,99.99
2022-10-01T02:48:16.928Z,99.99
2022-10-01T02:49:16.985Z,99.99
2022-10-01T02:50:16.942Z,99.99
2022-10-01T02:51:16.916Z,99.99
2022-10-01T02:52:16.888Z,99.99
2022-10-01T02:53:16.886Z,99.99
2022-10-01T02:54:16.871Z,99.99
2022-10-01T02:55:16.890Z,99.99
2022-10-01T02:56:16.853Z,99.99
2022-10-01T02:57:16.847Z,99.99
2022-10-01T02:58:16.815Z,99.99
2022-10-01T02:59:16.826Z,99.99
2022-10-01T03:00:16.812Z,99.99
2022-10-01T03:01:16.841Z,99.99
2022-10-01T03:02:16.842Z,99.99
2022-10-01T03:03:16.810Z,99.99
2022-10-01T03:04:16.770Z,99.99
2022-10-01T03:05:16.759Z,99.99
2022-10-01T03:06:16.753Z,99.99
2022-10-01T03:07:16.754Z,99.99
2022-10-01T03:08:16.734Z,99.99
2022-10-01T03:09:16.704Z,99.99
2022-10-01T03:10:16.731Z,99.99
2022-10-01T03:11:16.693Z,99.99
2022-10-01T03:12:16.705Z,99.99
2022-10-01T03:13:16.690Z,99.99
2022-10-01T03:14:16.649Z,99.99
2022-10-01T03:15:16.668Z,99.99
2022-10-01T03:16:16.739Z,99.99
2022-10-01T03:17:16.625Z,99.99
2022-10-01T03:18:16.627Z,99.99
2022-10-01T03:19:16.615Z,99.99
2022-10-01T03:20:16.593Z,99.99
2022-10-01T03:21:16.576Z,99.99
2022-10-01T03:22:16.585Z,99.99
2022-10-01T03:23:16.566Z,99.99
2022-10-01T03:24:16.556Z,99.99
2022-10-01T03:25:16.549Z,99.99
2022-10-01T03:26:16.506Z,99.99
2022-10-01T03:27:16.632Z,99.99
2022-10-01T03:28:16.628Z,99.99
2022-10-01T03:29:16.547Z,99.99
2022-10-01T03:30:16.480Z,99.99
2022-10-01T03:31:16.539Z,99.99
2022-10-01T03:32:16.452Z,99.99
2022-10-01T03:33:16.471Z,99.99
2022-10-01T03:34:16.440Z,99.99
2022-10-01T03:35:16.439Z,99.99
2022-10-01T03:36:16.422Z,99.99
2022-10-01T03:37:16.411Z,99.99
2022-10-01T03:38:16.397Z,99.99
2022-10-01T03:39:16.445Z,99.99
2022-10-01T03:40:16.359Z,99.99
2022-10-01T03:41:16.369Z,99.99
2022-10-01T03:42:17.427Z,99.99
2022-10-01T03:43:16.361Z,99.99
2022-10-01T03:44:16.337Z,99.99
2022-10-01T03:45:16.339Z,99.99
2022-10-01T03:46:16.365Z,99.99
2022-10-01T03:47:16.304Z,99.99
2022-10-01T03:48:16.301Z,99.99
2022-10-01T03:49:16.331Z,99.99
2022-10-01T03:50:16.275Z,99.99
2022-10-01T03:51:19.797Z,99.99
2022-10-01T03:52:16.272Z,99.99
2022-10-01T03:53:16.337Z,99.99
2022-10-01T03:54:16.216Z,99.99
2022-10-01T03:55:16.217Z,99.99
2022-10-01T03:56:16.231Z,99.99
2022-10-01T03:57:16.204Z,99.99
2022-10-01T03:58:16.167Z,99.99
2022-10-01T03:59:16.231Z,99.99
2022-10-01T04:00:16.332Z,99.99
2022-10-01T04:01:16.221Z,99.99
2022-10-01T04:02:16.361Z,99.99
2022-10-01T04:03:16.124Z,99.99
2022-10-01T04:04:16.110Z,99.99
2022-10-01T04:05:16.135Z,99.99
2022-10-01T04:06:16.100Z,99.99
2022-10-01T04:07:16.089Z,99.99
2022-10-01T04:08:17.931Z,99.99
2022-10-01T04:09:16.059Z,99.99
2022-10-01T04:10:16.052Z,99.99
2022-10-01T04:11:16.080Z,99.99
2022-10-01T04:12:16.126Z,99.99
2022-10-01T04:13:16.030Z,99.99
2022-10-01T04:14:15.993Z,99.99
2022-10-01T04:15:16.020Z,99.99
2022-10-01T04:16:16.162Z,99.99
2022-10-01T04:17:16.019Z,99.99
2022-10-01T04:18:15.960Z,99.99
2022-10-01T04:19:15.964Z,99.99
2022-10-01T04:20:15.961Z,99.99
2022-10-01T04:21:15.928Z,99.99
2022-10-01T04:22:16.011Z,99.99
2022-10-01T04:23:15.940Z,99.99
2022-10-01T04:24:15.904Z,99.99
2022-10-01T04:25:15.887Z,99.99
2022-10-01T04:26:15.894Z,99.99
2022-10-01T04:27:15.882Z,99.99
2022-10-01T04:28:15.942Z,99.99
2022-10-01T04:29:15.848Z,99.99
2022-10-01T04:30:15.881Z,99.99
2022-10-01T04:31:15.870Z,99.99
2022-10-01T04:32:15.803Z,99.99
2022-10-01T04:33:15.837Z,99.99
2022-10-01T04:34:15.782Z,99.99
2022-10-01T04:35:15.788Z,99.99
2022-10-01T04:36:15.772Z,99.99
2022-10-01T04:37:15.776Z,99.99
2022-10-01T04:38:15.769Z,99.99
2022-10-01T04:39:15.752Z,99.99
2022-10-01T04:40:15.731Z,99.99
2022-10-01T04:41:15.720Z,99.99
2022-10-01T04:42:15.698Z,99.99
2022-10-01T04:43:15.748Z,99.99
2022-10-01T04:44:15.705Z,99.99
2022-10-01T04:45:15.761Z,99.99
2022-10-01T04:46:15.738Z,99.99
2022-10-01T04:47:15.657Z,99.99
2022-10-01T04:48:15.649Z,99.99
2022-10-01T04:49:15.661Z,99.99
2022-10-01T04:50:15.751Z,99.99
2022-10-01T04:51:15.642Z,99.99
2022-10-01T04:52:15.601Z,99.99
2022-10-01T04:53:15.623Z,99.99
2022-10-01T04:54:15.572Z,99.99
2022-10-01T04:55:15.592Z,99.99
2022-10-01T04:56:15.564Z,99.99
2022-10-01T04:57:15.547Z,99.99
2022-10-01T04:58:15.548Z,99.99
2022-10-01T04:59:15.542Z,99.99
2022-10-01T05:00:15.549Z,99.99
2022-10-01T05:01:15.533Z,99.99
2022-10-01T05:02:15.528Z,99.99
2022-10-01T05:03:15.479Z,99.99
2022-10-01T05:04:15.464Z,99.99
2022-10-01T05:05:15.513Z,99.99
2022-10-01T05:06:15.464Z,99.99
2022-10-01T05:07:15.462Z,99.99
2022-10-01T05:08:15.454Z,99.99
2022-10-01T05:09:15.425Z,99.99
2022-10-01T05:10:15.418Z,99.99
2022-10-01T05:11:15.424Z,99.99
2022-10-01T05:12:15.410Z,99.99
2022-10-01T05:13:15.379Z,99.99
2022-10-01T05:14:15.361Z,99.99
2022-10-01T05:15:15.369Z,99.99
2022-10-01T05:16:15.395Z,99.99
2022-10-01T05:17:15.369Z,99.99
2022-10-01T05:18:15.910Z,99.99
2022-10-01T05:19:15.882Z,99.99
2022-10-01T05:20:15.252Z,99.99
2022-10-01T05:21:15.250Z,99.99
2022-10-01T05:22:15.319Z,99.99
2022-10-01T05:23:15.230Z,99.99
2022-10-01T05:24:15.204Z,99.99
2022-10-01T05:25:15.193Z,99.99
2022-10-01T05:26:15.170Z,99.99
2022-10-01T05:27:15.186Z,99.99
2022-10-01T05:28:19.845Z,99.99
2022-10-01T05:29:15.193Z,99.99
2022-10-01T05:30:15.131Z,99.99
2022-10-01T05:31:15.174Z,99.99
2022-10-01T05:32:15.113Z,99.99
2022-10-01T05:33:15.166Z,99.99
2022-10-01T05:34:15.098Z,99.99
2022-10-01T05:35:15.092Z,99.99
2022-10-01T05:36:15.070Z,99.99
2022-10-01T05:37:15.059Z,99.99
2022-10-01T05:38:15.121Z,99.99
2022-10-01T05:39:15.051Z,99.99
2022-10-01T05:40:15.022Z,99.99
2022-10-01T05:41:15.024Z,99.99
2022-10-01T05:42:15.006Z,99.99
2022-10-01T05:43:15.039Z,99.99
2022-10-01T05:44:14.983Z,99.99
2022-10-01T05:45:14.966Z,99.99
2022-10-01T05:46:14.989Z,99.99
2022-10-01T05:47:14.979Z,99.99
2022-10-01T05:48:15.071Z,99.99
2022-10-01T05:49:15.867Z,99.99
2022-10-01T05:50:14.989Z,99.99
2022-10-01T05:51:14.995Z,99.99
2022-10-01T05:52:14.915Z,99.99
2022-10-01T05:53:14.942Z,99.99
2022-10-01T05:54:15.768Z,99.99
2022-10-01T05:55:14.942Z,99.99
2022-10-01T05:56:14.850Z,99.99
2022-10-01T05:57:14.853Z,99.99
2022-10-01T05:58:14.844Z,99.99
2022-10-01T05:59:14.859Z,99.99
2022-10-01T06:00:14.819Z,99.99
2022-10-01T06:01:14.806Z,99.99
2022-10-01T06:02:14.891Z,99.99
2022-10-01T06:03:14.830Z,99.99
2022-10-01T06:04:14.796Z,99.99
2022-10-01T06:05:14.830Z,99.99
2022-10-01T06:06:14.734Z,99.99
2022-10-01T06:07:14.745Z,99.99
2022-10-01T06:08:14.731Z,99.99
2022-10-01T06:09:14.729Z,99.99
2022-10-01T06:10:14.707Z,99.99
2022-10-01T06:11:14.738Z,99.99
2022-10-01T06:12:19.578Z,99.99
2022-10-01T06:13:14.674Z,99.99
2022-10-01T06:14:14.662Z,99.99
2022-10-01T06:15:14.669Z,99.99
2022-10-01T06:16:14.768Z,99.99
2022-10-01T06:17:14.621Z,99.99
2022-10-01T06:18:14.618Z,99.99
2022-10-01T06:19:14.609Z,99.99
2022-10-01T06:20:14.642Z,99.99
2022-10-01T06:21:14.701Z,99.99
2022-10-01T06:22:14.587Z,99.99
2022-10-01T06:23:14.575Z,99.99
2022-10-01T06:24:14.564Z,99.99
2022-10-01T06:25:14.646Z,99.99
2022-10-01T06:26:14.541Z,99.99
2022-10-01T06:27:14.538Z,99.99
2022-10-01T06:28:14.657Z,99.99
2022-10-01T06:29:14.504Z,99.99
2022-10-01T06:30:14.515Z,99.99
2022-10-01T06:31:14.612Z,99.99
2022-10-01T06:32:14.507Z,99.99
2022-10-01T06:33:14.521Z,99.99
2022-10-01T06:34:14.474Z,99.99
2022-10-01T06:35:14.453Z,99.99
2022-10-01T06:36:14.412Z,99.99
2022-10-01T06:37:14.558Z,99.99
2022-10-01T06:38:14.413Z,99.99
2022-10-01T06:39:14.383Z,99.99
2022-10-01T06:40:14.383Z,99.99
2022-10-01T06:41:14.366Z,99.99
2022-10-01T06:42:14.395Z,99.99
2022-10-01T06:43:14.584Z,99.99
2022-10-01T06:44:15.640Z,99.99
2022-10-01T06:45:14.342Z,99.99
2022-10-01T06:46:14.367Z,99.99
2022-10-01T06:47:14.594Z,99.99
2022-10-01T06:48:14.337Z,99.99
2022-10-01T06:49:14.284Z,99.99
2022-10-01T06:50:14.280Z,99.99
2022-10-01T06:51:15.016Z,99.99
2022-10-01T06:52:14.243Z,99.99
2022-10-01T06:53:14.338Z,99.99
2022-10-01T06:54:14.291Z,99.99
2022-10-01T06:55:16.705Z,99.99
2022-10-01T06:56:14.990Z,99.99
2022-10-01T06:57:14.193Z,99.99
2022-10-01T06:58:14.228Z,99.99
2022-10-01T06:59:14.424Z,99.99
2022-10-01T07:00:14.162Z,99.99
2022-10-01T07:01:14.277Z,99.99
2022-10-01T07:02:14.192Z,99.99
2022-10-01T07:03:14.162Z,99.99
2022-10-01T07:04:21.022Z,99.99
2022-10-01T07:05:14.763Z,99.99
2022-10-01T07:06:14.136Z,99.99
2022-10-01T07:07:14.090Z,99.99
2022-10-01T07:08:14.072Z,99.99
2022-10-01T07:09:14.070Z,99.99
2022-10-01T07:10:14.079Z,99.99
2022-10-01T07:11:14.046Z,99.99
2022-10-01T07:12:14.189Z,99.99
2022-10-01T07:13:14.078Z,99.99
2022-10-01T07:14:14.011Z,99.99
2022-10-01T07:15:15.018Z,99.99
2022-10-01T07:16:15.021Z,99.99
2022-10-01T07:17:14.088Z,99.99
2022-10-01T07:18:14.174Z,99.99
2022-10-01T07:19:13.956Z,99.99
2022-10-01T07:20:13.953Z,99.99
2022-10-01T07:21:13.958Z,99.99
2022-10-01T07:22:13.919Z,99.99
2022-10-01T07:23:14.902Z,99.99
2022-10-01T07:24:13.924Z,99.99
2022-10-01T07:25:14.037Z,99.99
2022-10-01T07:26:14.010Z,99.99
2022-10-01T07:27:13.870Z,99.99
2022-10-01T07:28:14.097Z,99.99
2022-10-01T07:29:13.900Z,99.99
2022-10-01T07:30:13.846Z,99.99
2022-10-01T07:31:13.893Z,99.99
2022-10-01T07:32:13.946Z,99.99
2022-10-01T07:33:14.041Z,99.99
2022-10-01T07:34:13.820Z,99.99
2022-10-01T07:35:13.881Z,99.99
2022-10-01T07:36:13.796Z,99.99
2022-10-01T07:37:13.776Z,99.99
2022-10-01T07:38:13.766Z,99.99
2022-10-01T07:39:13.791Z,99.99
2022-10-01T07:40:13.769Z,99.99
2022-10-01T07:41:13.960Z,99.99
2022-10-01T07:42:14.080Z,99.99
2022-10-01T07:43:13.713Z,99.99
2022-10-01T07:44:13.700Z,99.99
2022-10-01T07:45:13.705Z,99.99
2022-10-01T07:46:13.860Z,99.99
2022-10-01T07:47:13.782Z,99.99
2022-10-01T07:48:13.743Z,99.99
2022-10-01T07:49:13.698Z,99.99
2022-10-01T07:50:13.660Z,99.99
2022-10-01T07:51:13.631Z,99.99
2022-10-01T07:52:13.625Z,99.99
2022-10-01T07:53:13.612Z,99.99
2022-10-01T07:54:13.769Z,99.99
2022-10-01T07:55:13.576Z,99.99
2022-10-01T07:56:13.639Z,99.99
2022-10-01T07:57:13.567Z,99.99
2022-10-01T07:58:13.549Z,99.99
2022-10-01T07:59:13.533Z,99.99
2022-10-01T08:00:13.535Z,99.99
2022-10-01T08:01:13.555Z,99.99
2022-10-01T08:02:13.533Z,99.99
2022-10-01T08:03:13.495Z,99.99
2022-10-01T08:04:14.306Z,99.99
2022-10-01T08:05:13.480Z,99.99
2022-10-01T08:06:13.457Z,99.99
2022-10-01T08:07:13.470Z,99.99
2022-10-01T08:08:13.520Z,99.99
2022-10-01T08:09:13.435Z,99.99
2022-10-01T08:10:13.497Z,99.99
2022-10-01T08:11:13.452Z,99.99
2022-10-01T08:12:14.092Z,99.99
2022-10-01T08:13:13.402Z,99.99
2022-10-01T08:14:13.378Z,99.99
2022-10-01T08:15:13.370Z,99.99
2022-10-01T08:16:13.427Z,99.99
2022-10-01T08:17:13.367Z,99.99
2022-10-01T08:18:13.358Z,99.99
2022-10-01T08:19:13.329Z,99.99
2022-10-01T08:20:13.327Z,99.99
2022-10-01T08:21:13.294Z,99.99
2022-10-01T08:22:13.319Z,99.99
2022-10-01T08:23:13.277Z,99.99
2022-10-01T08:24:13.280Z,99.30
2022-10-01T08:25:13.280Z,98.95
2022-10-01T08:26:13.254Z,99.66
2022-10-01T08:27:13.239Z,99.87
2022-10-01T08:28:13.392Z,99.97
2022-10-01T08:29:16.985Z,99.05
2022-10-01T08:30:13.215Z,99.16
2022-10-01T08:31:13.212Z,99.36
2022-10-01T08:32:13.242Z,98.75
2022-10-01T08:33:13.185Z,99.05
2022-10-01T08:34:13.169Z,99.26
2022-10-01T08:35:13.149Z,99.26
2022-10-01T08:36:13.151Z,99.05
2022-10-01T08:37:13.149Z,99.66
2022-10-01T08:38:13.129Z,99.36
2022-10-01T08:39:13.125Z,99.46
2022-10-01T08:40:13.116Z,99.87
2022-10-01T08:41:13.074Z,99.56
2022-10-01T08:42:13.104Z,98.85
2022-10-01T08:43:13.073Z,99.16
2022-10-01T08:44:13.089Z,98.91
2022-10-01T08:45:13.075Z,99.11
2022-10-01T08:46:13.068Z,98.70
2022-10-01T08:47:13.018Z,98.96
2022-10-01T08:48:13.028Z,98.45
2022-10-01T08:49:13.012Z,98.66
2022-10-01T08:50:13.010Z,98.75
2022-10-01T08:51:12.996Z,97.78
2022-10-01T08:52:12.974Z,98.09
2022-10-01T08:53:12.961Z,98.25
2022-10-01T08:54:12.960Z,98.09
2022-10-01T08:55:12.954Z,97.64
2022-10-01T08:56:12.964Z,97.53
2022-10-01T08:57:12.902Z,97.74
2022-10-01T08:58:12.900Z,98.25
2022-10-01T08:59:12.899Z,98.45
2022-10-01T09:00:12.896Z,97.33
2022-10-01T09:01:12.893Z,97.53
2022-10-01T09:02:12.909Z,97.23
2022-10-01T09:03:12.858Z,98.20
2022-10-01T09:04:12.911Z,96.98
2022-10-01T09:05:12.827Z,97.60
2022-10-01T09:06:12.822Z,96.98
2022-10-01T09:07:12.828Z,96.47
2022-10-01T09:08:12.825Z,96.47
2022-10-01T09:09:12.776Z,96.17
2022-10-01T09:10:12.780Z,96.17
2022-10-01T09:11:12.755Z,97.14
2022-10-01T09:12:12.764Z,96.12
2022-10-01T09:13:12.735Z,96.23
2022-10-01T09:14:12.739Z,95.82
2022-10-01T09:15:12.729Z,94.96
2022-10-01T09:16:12.793Z,94.66
2022-10-01T09:17:12.688Z,94.21
2022-10-01T09:18:12.691Z,94.00
2022-10-01T09:19:12.685Z,93.65
2022-10-01T09:20:12.680Z,92.84
2022-10-01T09:21:12.647Z,92.13
2022-10-01T09:22:12.641Z,93.05
2022-10-01T09:23:12.635Z,92.44
2022-10-01T09:24:12.650Z,92.64
2022-10-01T09:25:12.691Z,91.42
2022-10-01T09:26:12.603Z,91.73
2022-10-01T09:27:12.611Z,92.03
2022-10-01T09:28:12.651Z,92.64
2022-10-01T09:29:12.563Z,91.74
2022-10-01T09:30:12.622Z,90.99
2022-10-01T09:31:12.638Z,90.89
2022-10-01T09:32:12.544Z,91.54
2022-10-01T09:33:12.525Z,91.54
2022-10-01T09:34:12.517Z,91.38
2022-10-01T09:35:12.516Z,92.54
2022-10-01T09:36:12.514Z,92.74
2022-10-01T09:37:12.480Z,93.45
2022-10-01T09:38:12.468Z,93.76
2022-10-01T09:39:12.465Z,92.94
2022-10-01T09:40:12.472Z,93.25
2022-10-01T09:41:12.429Z,92.29
2022-10-01T09:42:12.429Z,91.28
2022-10-01T09:43:12.434Z,91.03
2022-10-01T09:44:16.745Z,90.62
2022-10-01T09:45:12.402Z,90.99
2022-10-01T09:46:12.430Z,90.38
2022-10-01T09:47:12.373Z,90.95
2022-10-01T09:48:12.375Z,89.83
2022-10-01T09:49:12.345Z,89.83
2022-10-01T09:50:12.376Z,89.83
2022-10-01T09:51:12.354Z,90.84
2022-10-01T09:52:12.361Z,89.53
2022-10-01T09:53:12.307Z,89.08
2022-10-01T09:54:12.307Z,88.72
2022-10-01T09:55:12.277Z,88.64
2022-10-01T09:56:12.310Z,86.43
2022-10-01T09:57:12.266Z,83.22
2022-10-01T09:58:12.262Z,81.93
2022-10-01T09:59:12.242Z,80.41
2022-10-01T10:00:12.245Z,82.37
2022-10-01T10:01:12.229Z,83.32
2022-10-01T10:02:12.289Z,83.26
2022-10-01T10:03:12.315Z,79.81
2022-10-01T10:04:15.531Z,79.03
2022-10-01T10:05:12.179Z,80.47
2022-10-01T10:06:12.168Z,81.42
2022-10-01T10:07:12.157Z,81.02
2022-10-01T10:08:12.168Z,81.44
2022-10-01T10:09:12.157Z,83.50
2022-10-01T10:10:12.153Z,83.64
2022-10-01T10:11:12.140Z,85.46
2022-10-01T10:12:12.123Z,85.86
2022-10-01T10:13:12.113Z,84.99
2022-10-01T10:14:12.110Z,85.19
2022-10-01T10:15:12.080Z,86.25
2022-10-01T10:16:12.095Z,87.46
2022-10-01T10:17:12.048Z,87.81
2022-10-01T10:18:12.055Z,88.42
2022-10-01T10:19:12.061Z,88.82
2022-10-01T10:20:12.048Z,89.53
2022-10-01T10:21:12.007Z,89.32
2022-10-01T10:22:11.999Z,88.21
2022-10-01T10:23:12.061Z,89.53
2022-10-01T10:24:12.043Z,89.98
2022-10-01T10:25:11.965Z,89.53
2022-10-01T10:26:12.059Z,89.79
2022-10-01T10:27:11.959Z,87.79
2022-10-01T10:28:11.989Z,85.28
2022-10-01T10:29:11.938Z,85.36
2022-10-01T10:30:11.936Z,84.05
2022-10-01T10:31:11.973Z,84.33
2022-10-01T10:32:11.896Z,87.04
2022-10-01T10:33:11.898Z,88.48
2022-10-01T10:34:11.889Z,89.43
2022-10-01T10:35:11.858Z,91.15
2022-10-01T10:36:11.893Z,91.70
2022-10-01T10:37:11.847Z,92.76
2022-10-01T10:38:11.828Z,93.67
2022-10-01T10:39:11.833Z,94.02
2022-10-01T10:40:11.815Z,94.73
2022-10-01T10:41:11.829Z,95.43
2022-10-01T10:42:11.808Z,96.04
2022-10-01T10:43:11.779Z,96.19
2022-10-01T10:44:11.784Z,96.19
2022-10-01T10:45:11.799Z,95.79
2022-10-01T10:46:11.853Z,94.98
2022-10-01T10:47:11.738Z,95.89
2022-10-01T10:48:11.733Z,96.70
2022-10-01T10:49:11.726Z,96.30
2022-10-01T10:50:11.703Z,95.68
2022-10-01T10:51:11.716Z,95.89
2022-10-01T10:52:11.678Z,96.86
2022-10-01T10:53:11.680Z,95.43
2022-10-01T10:54:11.741Z,95.43
2022-10-01T10:55:11.650Z,95.94
2022-10-01T10:56:11.700Z,96.00
2022-10-01T10:57:11.638Z,96.00
2022-10-01T10:58:11.615Z,95.59
2022-10-01T10:59:11.613Z,94.58
2022-10-01T11:00:11.601Z,95.29
2022-10-01T11:01:11.633Z,96.00
2022-10-01T11:02:11.600Z,94.43
2022-10-01T11:03:11.564Z,95.09
2022-10-01T11:04:11.558Z,94.89
2022-10-01T11:05:11.565Z,95.90
2022-10-01T11:06:11.528Z,96.10
2022-10-01T11:07:11.539Z,95.74
2022-10-01T11:08:15.521Z,96.80
2022-10-01T11:09:11.520Z,97.61
2022-10-01T11:10:11.500Z,97.51
2022-10-01T11:11:11.479Z,97.81
2022-10-01T11:12:11.481Z,98.32
2022-10-01T11:13:11.460Z,98.63
2022-10-01T11:14:11.516Z,99.08
2022-10-01T11:15:11.477Z,97.96
2022-10-01T11:16:11.471Z,97.86
2022-10-01T11:17:11.418Z,97.56
2022-10-01T11:18:11.412Z,98.27
2022-10-01T11:19:11.386Z,98.27
2022-10-01T11:20:11.372Z,98.88
2022-10-01T11:21:11.396Z,98.77
2022-10-01T11:22:11.373Z,98.68
2022-10-01T11:23:11.350Z,98.27
2022-10-01T11:24:11.329Z,98.07
2022-10-01T11:25:11.338Z,96.75
2022-10-01T11:26:11.340Z,98.07
2022-10-01T11:27:11.305Z,97.25
2022-10-01T11:28:11.438Z,97.76
2022-10-01T11:29:11.290Z,97.35
2022-10-01T11:30:11.261Z,96.14
2022-10-01T11:31:11.323Z,96.64
2022-10-01T11:32:11.253Z,95.89
2022-10-01T11:33:11.247Z,95.79
2022-10-01T11:34:11.263Z,95.58
2022-10-01T11:35:11.209Z,94.84
2022-10-01T11:36:11.202Z,91.00
2022-10-01T11:37:11.197Z,89.75
2022-10-01T11:38:11.205Z,89.04
2022-10-01T11:39:11.183Z,88.90
2022-10-01T11:40:11.207Z,88.45
2022-10-01T11:41:11.173Z,88.04
2022-10-01T11:42:11.149Z,89.36
2022-10-01T11:43:11.148Z,89.06
2022-10-01T11:44:11.117Z,87.24
2022-10-01T11:45:11.108Z,87.58
2022-10-01T11:46:11.127Z,88.29
2022-10-01T11:47:11.098Z,89.36
2022-10-01T11:48:11.092Z,86.57
2022-10-01T11:49:11.080Z,86.53
2022-10-01T11:50:11.089Z,86.98
2022-10-01T11:51:11.058Z,87.74
2022-10-01T11:52:11.084Z,87.64
2022-10-01T11:53:11.029Z,84.51
2022-10-01T11:54:11.029Z,82.79
2022-10-01T11:55:10.997Z,82.99
2022-10-01T11:56:11.002Z,82.28
2022-10-01T11:57:10.971Z,81.48
2022-10-01T11:58:10.966Z,83.76
2022-10-01T11:59:11.554Z,82.14
2022-10-01T12:00:11.081Z,83.72
2022-10-01T12:01:10.937Z,78.57
2022-10-01T12:02:11.007Z,79.99
2022-10-01T12:03:10.915Z,78.43
2022-10-01T12:04:10.935Z,77.89
2022-10-01T12:05:10.922Z,78.50
2022-10-01T12:06:10.872Z,78.09
2022-10-01T12:07:10.869Z,78.72
2022-10-01T12:08:10.881Z,74.82
2022-10-01T12:09:10.857Z,72.30
2022-10-01T12:10:10.856Z,71.80
2022-10-01T12:11:10.824Z,67.25
2022-10-01T12:12:10.808Z,65.01
2022-10-01T12:13:10.812Z,67.85
2022-10-01T12:14:10.804Z,72.17
2022-10-01T12:15:10.789Z,69.79
2022-10-01T12:16:10.858Z,73.72
2022-10-01T12:17:10.796Z,75.43
2022-10-01T12:18:10.745Z,78.30
2022-10-01T12:19:10.752Z,81.67
2022-10-01T12:20:10.734Z,81.56
2022-10-01T12:21:10.717Z,78.27
2022-10-01T12:22:10.699Z,79.34
2022-10-01T12:23:10.696Z,79.50
2022-10-01T12:24:10.679Z,76.20
2022-10-01T12:25:10.687Z,69.35
2022-10-01T12:26:10.651Z,68.72
2022-10-01T12:27:10.648Z,70.12
2022-10-01T12:28:13.766Z,73.61
2022-10-01T12:29:10.624Z,74.79
2022-10-01T12:30:10.652Z,74.96
2022-10-01T12:31:10.629Z,79.43
2022-10-01T12:32:10.580Z,78.59
2022-10-01T12:33:10.592Z,80.85
2022-10-01T12:34:10.569Z,82.01
2022-10-01T12:35:10.558Z,82.24
2022-10-01T12:36:10.568Z,81.60
2022-10-01T12:37:10.545Z,81.82
2022-10-01T12:38:10.541Z,81.62
2022-10-01T12:39:10.519Z,82.03
2022-10-01T12:40:10.498Z,79.41
2022-10-01T12:41:10.519Z,80.27
2022-10-01T12:42:10.489Z,76.30
2022-10-01T12:43:10.478Z,76.16
2022-10-01T12:44:10.461Z,77.50
2022-10-01T12:45:10.456Z,75.83
2022-10-01T12:46:10.491Z,76.74
2022-10-01T12:47:10.437Z,75.49
2022-10-01T12:48:10.426Z,76.70
2022-10-01T12:49:10.419Z,77.75
2022-10-01T12:50:10.408Z,76.67
2022-10-01T12:51:10.386Z,78.94
2022-10-01T12:52:10.392Z,72.33